West Yellowstone, MT

12:01 AM MDT on August 25, 2016 (GMT -0600)
Rainbow Pointe | | Change Station
Active Advisory: Air Quality Alert

Elev 6581 ft 44.76 °N, 111.18 °W | Updated 4 seconds ago

Clear
Clear
46.8 °F
Feels Like 47 °F
N
0.2
Wind Variable Wind from ESE
Gusts 2.5 mph

Today
High -- | Low -- °F
--% Chance of Precip.
Yesterday
High -- | Low -- °F
Precip. -- in
Pressure 30.37 in
Visibility 10.0 miles
Clouds Clear
Windchill 47 °F
Dew Point 36 °F
Humidity 65%
Rainfall 0.00 in
Snow Depth Not available.
6:39 AM 8:12 PM
Waning Gibbous, 49% visible
METAR KWYS 250550Z AUTO 03003KT 10SM CLR 07/00 A3037 RMK AO2
Pressure 30.37 in
Visibility 10.0 miles
Clouds Clear
Windchill 47 °F
Dew Point 36 °F
Humidity 65%
Rainfall 0.00 in
Snow Depth Not available.
6:39 AM 8:12 PM
Waning Gibbous, 49% visible
METAR KWYS 250550Z AUTO 03003KT 10SM CLR 07/00 A3037 RMK AO2

10-Day Weather Forecast

Almanac

Astronomy

Aug. 25, 2016 Rise Set
Actual Time
Civil Twilight
Nautical Twilight
Astronomical Twilight
Moon
Length of Visible Light
Length of Day
Tomorrow will be .
, % of the Moon is Illuminated

Today's Extremes

State Highs State Lows

Community

WunderPhotos

Upload Photos

1,934,799 photos uploaded!

WunderBlog® & News

Nearby

Air Quality

  Air Quality AQ Index Pollutant
Not available.

Snow Depth

Station Depth Elevation

Earthquake Activity

City Distance Mag. Time & Date
Minimum magnitude displayed is 2.5.

Coastal Water Temperatures

Place Temperature

Stations

Nearby Weather Stations

Station Location Temp. Windchill Dew Point Humidity Wind Precip. Elev Updated Type
                   

Watches & Warnings

Air Quality Alert
Issued: National Weather Service
quality at www.Todaysair.Mt.Gov.